Time;durP1;ratioP1;P1;durP2;ratioP2;P2;SDS_P1;SDS_P2;PMS_P1;PMS_P2;Temp;Humidity;BMP_temperature;BMP_pressure;BME280_temperature;BME280_humidity;BME280_pressure;Samples;Min_cycle;Max_cycle;Signal;HPM_P1;HPM_P2
2023/08/24 00:02:12;;;;;;;;;;;24.00;60.10;;;;;;10212135;28;93416;-57
2023/08/24 00:07:16;;;;;;;;;;;24.00;60.10;;;;;;10197185;28;114250;-56
2023/08/24 00:12:18;;;;;;;;;;;24.00;60.10;;;;;;10198080;28;94493;-56
2023/08/24 00:17:20;;;;;;;;;;;24.00;60.10;;;;;;10196831;28;92387;-57
2023/08/24 00:22:22;;;;;;;;;;;24.00;60.10;;;;;;10196959;28;94751;-56
2023/08/24 00:27:25;;;;;;;;;;;24.00;60.00;;;;;;10190853;28;94143;-56
2023/08/24 00:32:27;;;;;;;;;;;24.00;60.10;;;;;;10192981;28;95800;-56
2023/08/24 00:37:29;;;;;;;;;;;23.90;60.00;;;;;;10196331;28;94452;-56
2023/08/24 00:42:31;;;;;;;;;;;23.90;60.00;;;;;;10188618;28;94573;-56
2023/08/24 00:47:33;;;;;;;;;;;23.90;60.10;;;;;;10185364;28;93703;-56
2023/08/24 00:52:40;;;;;;;;;;;23.90;60.10;;;;;;10189780;28;93985;-56
2023/08/24 00:57:42;;;;;;;;;;;23.90;60.00;;;;;;10184509;28;94829;-56
2023/08/24 01:02:44;;;;;;;;;;;23.90;60.00;;;;;;10195373;28;93846;-56
2023/08/24 01:07:46;;;;;;;;;;;23.80;60.00;;;;;;10195772;28;93817;-56
2023/08/24 01:13:02;;;;;;;;;;;23.80;60.10;;;;;;10195729;28;93791;-56
2023/08/24 01:18:05;;;;;;;;;;;23.80;60.20;;;;;;10189953;28;93814;-56
2023/08/24 01:23:18;;;;;;;;;;;23.80;60.20;;;;;;10191340;28;96677;-56
2023/08/24 01:28:20;;;;;;;;;;;23.80;60.20;;;;;;10185854;28;93749;-56
2023/08/24 01:33:22;;;;;;;;;;;23.80;60.20;;;;;;10193086;28;94350;-56
2023/08/24 01:38:25;;;;;;;;;;;23.80;60.20;;;;;;10190508;28;93392;-56
2023/08/24 01:43:30;;;;;;;;;;;23.80;60.30;;;;;;10184646;28;94445;-57
2023/08/24 01:48:44;;;;;;;;;;;23.80;60.40;;;;;;10194476;28;94809;-56
2023/08/24 01:53:47;;;;;;;;;;;23.80;60.40;;;;;;10185143;28;94398;-56
2023/08/24 01:58:49;;;;;;;;;;;23.80;60.60;;;;;;10183793;28;93623;-56
2023/08/24 02:03:50;;;;;;;;;;;23.80;61.60;;;;;;10194479;28;93509;-56
2023/08/24 02:08:52;;;;;;;;;;;23.80;60.70;;;;;;10186491;28;94616;-56
2023/08/24 02:13:55;;;;;;;;;;;23.70;60.70;;;;;;10190295;28;96325;-56
2023/08/24 02:18:57;;;;;;;;;;;23.70;61.80;;;;;;10198735;28;94710;-59
2023/08/24 02:23:59;;;;;;;;;;;23.80;60.90;;;;;;10202654;28;95038;-55
2023/08/24 02:29:01;;;;;;;;;;;23.70;60.80;;;;;;10198789;28;92509;-57
2023/08/24 02:34:03;;;;;;;;;;;23.70;60.90;;;;;;10200002;28;93548;-57
2023/08/24 02:39:05;;;;;;;;;;;23.70;60.90;;;;;;10201149;28;93920;-56
2023/08/24 02:44:07;;;;;;;;;;;23.70;61.00;;;;;;10200595;28;93387;-56
2023/08/24 02:49:09;;;;;;;;;;;23.70;61.00;;;;;;10198358;28;94363;-56
2023/08/24 02:54:11;;;;;;;;;;;23.70;61.00;;;;;;10207647;28;94775;-56
2023/08/24 02:59:12;;;;;;;;;;;23.70;61.00;;;;;;10199130;28;93524;-56
2023/08/24 03:04:14;;;;;;;;;;;23.70;61.10;;;;;;10212714;28;96214;-56
2023/08/24 03:09:16;;;;;;;;;;;23.80;61.20;;;;;;10199559;28;94440;-56
2023/08/24 03:14:18;;;;;;;;;;;23.70;61.10;;;;;;10200011;28;93506;-56
2023/08/24 03:19:20;;;;;;;;;;;23.70;61.10;;;;;;10200925;28;94895;-56
2023/08/24 03:24:22;;;;;;;;;;;23.70;61.10;;;;;;10205616;28;94639;-56
2023/08/24 03:29:24;;;;;;;;;;;23.80;61.20;;;;;;10197877;28;94057;-56
2023/08/24 03:34:27;;;;;;;;;;;23.70;61.20;;;;;;10194256;28;94408;-57
2023/08/24 03:39:29;;;;;;;;;;;23.70;61.20;;;;;;10197805;28;94028;-56
2023/08/24 03:44:30;;;;;;;;;;;23.70;61.20;;;;;;10198607;28;93471;-57
2023/08/24 03:49:32;;;;;;;;;;;23.70;61.20;;;;;;10193026;28;93869;-59
2023/08/24 03:54:34;;;;;;;;;;;23.80;61.20;;;;;;10196291;28;96694;-56
2023/08/24 03:59:36;;;;;;;;;;;23.70;61.20;;;;;;10212583;28;94809;-56
2023/08/24 04:04:38;;;;;;;;;;;23.70;61.10;;;;;;10197622;28;93544;-56
2023/08/24 04:09:40;;;;;;;;;;;23.70;61.20;;;;;;10197225;28;93508;-57
2023/08/24 04:14:42;;;;;;;;;;;23.70;61.20;;;;;;10196397;28;94437;-56
2023/08/24 04:19:43;;;;;;;;;;;23.70;61.20;;;;;;10197343;28;93572;-56
2023/08/24 04:24:45;;;;;;;;;;;23.70;61.10;;;;;;10203184;28;94500;-56
2023/08/24 04:29:47;;;;;;;;;;;23.70;61.10;;;;;;10189454;28;92732;-56
2023/08/24 04:34:49;;;;;;;;;;;23.70;61.10;;;;;;10188510;28;93504;-56
2023/08/24 04:39:51;;;;;;;;;;;23.70;61.10;;;;;;10177000;28;93458;-56
2023/08/24 04:44:53;;;;;;;;;;;23.70;61.10;;;;;;10171485;28;97038;-56
2023/08/24 04:49:55;;;;;;;;;;;23.70;61.10;;;;;;10650157;22;94282;-61
2023/08/24 04:54:57;;;;;;;;;;;23.70;61.20;;;;;;10213276;28;94360;-62
2023/08/24 04:59:59;;;;;;;;;;;23.70;61.10;;;;;;10247404;28;94036;-63
2023/08/24 05:05:00;;;;;;;;;;;23.70;61.10;;;;;;10241426;28;94931;-61
2023/08/24 05:10:03;;;;;;;;;;;23.70;61.40;;;;;;10226353;28;93519;-65
2023/08/24 05:15:06;;;;;;;;;;;23.70;61.80;;;;;;10227638;28;94453;-65
2023/08/24 05:20:09;;;;;;;;;;;23.70;62.20;;;;;;10230978;28;93445;-65
2023/08/24 05:25:11;;;;;;;;;;;23.70;62.40;;;;;;10215899;28;94763;-66
2023/08/24 05:30:13;;;;;;;;;;;23.70;62.20;;;;;;10232256;28;93598;-66
2023/08/24 05:35:15;;;;;;;;;;;23.80;62.40;;;;;;10232088;28;95792;-65
2023/08/24 05:40:17;;;;;;;;;;;23.80;61.80;;;;;;10234532;28;92862;-65
2023/08/24 05:45:22;;;;;;;;;;;23.80;61.80;;;;;;10235260;28;93971;-65
2023/08/24 05:50:27;;;;;;;;;;;23.80;61.70;;;;;;10234327;28;93391;-65
2023/08/24 05:55:29;;;;;;;;;;;23.80;61.70;;;;;;10235063;28;93461;-65
2023/08/24 06:00:31;;;;;;;;;;;23.80;61.60;;;;;;10236395;28;93655;-65
2023/08/24 06:05:32;;;;;;;;;;;23.80;61.60;;;;;;10242332;28;93474;-65
2023/08/24 06:10:34;;;;;;;;;;;23.80;61.60;;;;;;10242834;28;94072;-65
2023/08/24 06:15:36;;;;;;;;;;;23.80;61.60;;;;;;10241379;28;93746;-65
2023/08/24 06:20:38;;;;;;;;;;;23.80;61.80;;;;;;10241717;28;94338;-64
2023/08/24 06:25:40;;;;;;;;;;;23.70;61.80;;;;;;10238217;28;95847;-65
2023/08/24 06:30:42;;;;;;;;;;;23.70;61.70;;;;;;10246623;28;93267;-65
2023/08/24 06:35:44;;;;;;;;;;;23.70;61.70;;;;;;10241226;28;94490;-64
2023/08/24 06:40:46;;;;;;;;;;;23.70;61.80;;;;;;10240529;28;92827;-64
2023/08/24 06:45:49;;;;;;;;;;;23.70;61.80;;;;;;10240724;28;93469;-65
2023/08/24 06:50:51;;;;;;;;;;;23.70;62.00;;;;;;10245595;28;93180;-65
2023/08/24 06:55:57;;;;;;;;;;;23.70;61.90;;;;;;10238085;28;93777;-64
2023/08/24 07:00:59;;;;;;;;;;;23.70;62.00;;;;;;10252687;28;92630;-64
2023/08/24 07:06:01;;;;;;;;;;;23.70;61.90;;;;;;10255055;28;93377;-65
2023/08/24 07:11:03;;;;;;;;;;;23.80;61.80;;;;;;10241251;28;95535;-65
2023/08/24 07:16:04;;;;;;;;;;;23.80;61.90;;;;;;10237692;28;97429;-65
2023/08/24 07:21:06;;;;;;;;;;;23.80;61.80;;;;;;10240324;28;93449;-65
2023/08/24 07:26:09;;;;;;;;;;;23.80;61.80;;;;;;10254256;28;93654;-65
2023/08/24 07:31:12;;;;;;;;;;;23.80;61.90;;;;;;10235770;28;94420;-65
2023/08/24 07:36:15;;;;;;;;;;;23.80;62.00;;;;;;10233038;28;94401;-66
2023/08/24 07:41:18;;;;;;;;;;;23.80;62.20;;;;;;10392644;28;93007;-68
2023/08/24 07:46:21;;;;;;;;;;;23.80;62.60;;;;;;10420815;28;31060;-64
2023/08/24 07:51:23;;;;;;;;;;;23.80;63.60;;;;;;10389823;28;88279;-66
2023/08/24 07:56:25;;;;;;;;;;;23.70;64.00;;;;;;10249334;28;94738;-68
2023/08/24 08:01:26;;;;;;;;;;;23.60;64.30;;;;;;10393836;28;19934;-67
2023/08/24 08:06:28;;;;;;;;;;;23.60;64.70;;;;;;10390454;28;19940;-67
2023/08/24 08:11:30;;;;;;;;;;;23.50;65.10;;;;;;10387498;28;26574;-67
2023/08/24 08:16:32;;;;;;;;;;;23.50;65.90;;;;;;10397474;28;19940;-66
2023/08/24 08:21:36;;;;;;;;;;;23.50;65.70;;;;;;10412544;28;19933;-66
2023/08/24 08:26:38;;;;;;;;;;;23.50;66.30;;;;;;10399522;28;19943;-68
2023/08/24 08:31:41;;;;;;;;;;;23.50;66.50;;;;;;10399066;28;19933;-67
2023/08/24 08:36:43;;;;;;;;;;;23.50;66.30;;;;;;10321514;28;93020;-66
2023/08/24 08:41:45;;;;;;;;;;;23.50;66.60;;;;;;10392361;28;94263;-66
2023/08/24 08:46:49;;;;;;;;;;;23.60;66.70;;;;;;10401544;28;69804;-66
2023/08/24 08:51:54;;;;;;;;;;;23.60;66.80;;;;;;10379294;28;21072;-65
2023/08/24 08:56:55;;;;;;;;;;;23.60;66.40;;;;;;10404643;28;20383;-64
2023/08/24 09:02:00;;;;;;;;;;;23.60;66.60;;;;;;10401177;28;19933;-67
2023/08/24 09:07:07;;;;;;;;;;;23.60;66.60;;;;;;10404846;28;20684;-67
2023/08/24 09:12:10;;;;;;;;;;;23.60;66.20;;;;;;10386908;28;20136;-68
2023/08/24 09:17:19;;;;;;;;;;;23.60;66.40;;;;;;10386782;28;19940;-68
2023/08/24 09:22:21;;;;;;;;;;;23.70;66.60;;;;;;10321875;28;92657;-69
2023/08/24 09:27:23;;;;;;;;;;;23.70;67.40;;;;;;10415409;28;19934;-66
2023/08/24 09:32:27;;;;;;;;;;;23.70;67.90;;;;;;10423365;28;19933;-70
2023/08/24 09:37:33;;;;;;;;;;;23.80;68.10;;;;;;10430222;28;20179;-65
2023/08/24 09:42:42;;;;;;;;;;;23.80;68.20;;;;;;10410092;28;20289;-66
2023/08/24 09:47:53;;;;;;;;;;;23.80;67.70;;;;;;10424191;28;19956;-68
2023/08/24 09:52:57;;;;;;;;;;;23.80;68.00;;;;;;10424685;28;19973;-66
2023/08/24 09:58:00;;;;;;;;;;;23.80;68.10;;;;;;10417451;28;20384;-66
2023/08/24 10:03:03;;;;;;;;;;;23.80;68.30;;;;;;10412233;28;19933;-66
2023/08/24 10:08:06;;;;;;;;;;;23.70;68.10;;;;;;10432937;28;19956;-67
2023/08/24 10:13:17;;;;;;;;;;;23.70;68.30;;;;;;10426129;28;20448;-69
2023/08/24 10:18:23;;;;;;;;;;;23.70;68.60;;;;;;10420338;28;19984;-68
2023/08/24 10:23:27;;;;;;;;;;;23.70;68.40;;;;;;10416421;28;19941;-66
2023/08/24 10:28:30;;;;;;;;;;;23.60;68.80;;;;;;10415565;28;20124;-68
2023/08/24 10:33:34;;;;;;;;;;;23.60;69.00;;;;;;10425292;28;19933;-68
2023/08/24 10:38:41;;;;;;;;;;;23.60;69.20;;;;;;10407950;28;19934;-69
2023/08/24 10:43:50;;;;;;;;;;;23.50;69.50;;;;;;10418931;28;19918;-67
2023/08/24 10:48:59;;;;;;;;;;;23.50;69.70;;;;;;10444570;28;19922;-68
2023/08/24 10:54:05;;;;;;;;;;;23.50;69.90;;;;;;10437313;28;19940;-67
2023/08/24 10:59:14;;;;;;;;;;;23.50;70.00;;;;;;10413713;28;20037;-70
2023/08/24 11:04:16;;;;;;;;;;;23.50;70.30;;;;;;10419121;28;20416;-64
2023/08/24 11:09:19;;;;;;;;;;;23.50;70.50;;;;;;10409870;28;19944;-64
2023/08/24 11:14:26;;;;;;;;;;;23.60;71.10;;;;;;10426966;28;19940;-65
2023/08/24 11:19:30;;;;;;;;;;;23.60;71.50;;;;;;10437037;28;19933;-64
2023/08/24 11:24:33;;;;;;;;;;;23.70;72.60;;;;;;10343113;28;92611;-64
2023/08/24 11:29:34;;;;;;;;;;;23.70;74.00;;;;;;10412465;28;20671;-65
2023/08/24 11:34:37;;;;;;;;;;;23.70;74.10;;;;;;10418187;28;19940;-66
2023/08/24 11:39:45;;;;;;;;;;;23.70;74.30;;;;;;10422019;28;20041;-64
2023/08/24 11:44:47;;;;;;;;;;;23.60;74.30;;;;;;10420302;28;20303;-64
2023/08/24 11:49:49;;;;;;;;;;;23.60;74.70;;;;;;10410499;28;19937;-63
2023/08/24 11:54:51;;;;;;;;;;;23.60;74.50;;;;;;10417338;28;19972;-64
2023/08/24 11:59:53;;;;;;;;;;;23.60;75.00;;;;;;10408407;28;19934;-65
2023/08/24 12:04:56;;;;;;;;;;;23.60;74.80;;;;;;10413132;28;19933;-65
2023/08/24 12:10:00;;;;;;;;;;;23.70;74.50;;;;;;10404628;28;19940;-64
2023/08/24 12:15:02;;;;;;;;;;;23.60;75.20;;;;;;10418096;28;19934;-63
2023/08/24 12:20:06;;;;;;;;;;;23.70;75.10;;;;;;10408406;28;19933;-63
2023/08/24 12:25:08;;;;;;;;;;;23.70;74.80;;;;;;10424294;28;19940;-64
2023/08/24 12:30:11;;;;;;;;;;;23.70;73.90;;;;;;10404258;28;20015;-64
2023/08/24 12:35:14;;;;;;;;;;;23.70;73.60;;;;;;10404680;28;19941;-63
2023/08/24 12:40:16;;;;;;;;;;;23.70;73.80;;;;;;10416413;28;19934;-63
2023/08/24 12:45:18;;;;;;;;;;;23.80;73.50;;;;;;10417319;28;20277;-63
2023/08/24 12:50:20;;;;;;;;;;;23.80;73.20;;;;;;10414639;28;19937;-63
2023/08/24 12:55:22;;;;;;;;;;;23.80;73.10;;;;;;10411057;28;19976;-63
2023/08/24 13:00:24;;;;;;;;;;;23.80;72.90;;;;;;10397801;28;20734;-65
2023/08/24 13:05:26;;;;;;;;;;;23.80;72.90;;;;;;10411937;28;19940;-63
2023/08/24 13:10:28;;;;;;;;;;;23.80;72.70;;;;;;10411499;28;20745;-64
2023/08/24 13:15:30;;;;;;;;;;;23.80;72.50;;;;;;10422540;28;19934;-64
2023/08/24 13:20:31;;;;;;;;;;;23.80;72.50;;;;;;10338839;28;92563;-63
2023/08/24 13:25:33;;;;;;;;;;;23.80;72.40;;;;;;10237832;28;94472;-63
2023/08/24 13:30:35;;;;;;;;;;;23.80;72.40;;;;;;10235757;28;93485;-63
2023/08/24 13:35:37;;;;;;;;;;;23.80;72.20;;;;;;10235883;28;94396;-63
2023/08/24 13:40:39;;;;;;;;;;;23.80;72.10;;;;;;10236214;28;93591;-63
2023/08/24 13:45:41;;;;;;;;;;;23.80;72.10;;;;;;10251227;28;93417;-63
2023/08/24 13:50:49;;;;;;;;;;;23.80;72.00;;;;;;10234899;28;93448;-62
2023/08/24 13:55:51;;;;;;;;;;;23.80;72.00;;;;;;10229901;28;94565;-63
2023/08/24 14:00:56;;;;;;;;;;;23.80;71.90;;;;;;10227434;28;95880;-63
2023/08/24 14:05:59;;;;;;;;;;;23.80;72.00;;;;;;10331731;28;94437;-63
2023/08/24 14:11:01;;;;;;;;;;;23.80;71.90;;;;;;10393166;28;20012;-62
2023/08/24 14:16:03;;;;;;;;;;;23.70;71.80;;;;;;10392895;28;19934;-63
2023/08/24 14:21:06;;;;;;;;;;;23.70;71.90;;;;;;10296949;28;92652;-63
2023/08/24 14:26:12;;;;;;;;;;;23.70;71.90;;;;;;10241788;28;94561;-63
2023/08/24 14:31:14;;;;;;;;;;;23.70;71.90;;;;;;10241596;28;93305;-62
2023/08/24 14:36:16;;;;;;;;;;;23.70;71.80;;;;;;10245478;28;94069;-63
2023/08/24 14:41:18;;;;;;;;;;;23.70;71.90;;;;;;10243906;28;94457;-63
2023/08/24 14:46:19;;;;;;;;;;;23.70;71.80;;;;;;10242958;28;95096;-63
2023/08/24 14:51:21;;;;;;;;;;;23.80;71.60;;;;;;10238710;28;95855;-63
2023/08/24 14:56:24;;;;;;;;;;;23.80;71.40;;;;;;10336229;28;94308;-63
2023/08/24 15:01:26;;;;;;;;;;;23.80;71.20;;;;;;10407466;28;19934;-63
2023/08/24 15:06:29;;;;;;;;;;;23.80;71.20;;;;;;10413300;28;20030;-63
2023/08/24 15:11:31;;;;;;;;;;;23.80;71.20;;;;;;10417283;28;19934;-64
2023/08/24 15:16:33;;;;;;;;;;;23.80;71.10;;;;;;10411937;28;19934;-63
2023/08/24 15:21:35;;;;;;;;;;;23.90;71.10;;;;;;10412837;28;19933;-64
2023/08/24 15:26:37;;;;;;;;;;;24.10;70.70;;;;;;10381918;28;91713;-62
2023/08/24 15:31:42;;;;;;;;;;;24.20;70.30;;;;;;10393379;28;19933;-63
2023/08/24 15:36:45;;;;;;;;;;;24.40;70.30;;;;;;10408187;28;19981;-63
2023/08/24 15:41:46;;;;;;;;;;;24.50;69.90;;;;;;10394967;28;19933;-63
2023/08/24 15:46:49;;;;;;;;;;;24.60;69.70;;;;;;10395178;28;19934;-63
2023/08/24 15:51:51;;;;;;;;;;;24.50;69.70;;;;;;10405442;28;19934;-63
2023/08/24 15:56:55;;;;;;;;;;;24.40;70.00;;;;;;10393946;28;19933;-63
2023/08/24 16:01:57;;;;;;;;;;;24.40;70.10;;;;;;10391129;28;19933;-63
2023/08/24 16:07:00;;;;;;;;;;;24.40;70.10;;;;;;10389092;28;20090;-63
2023/08/24 16:12:02;;;;;;;;;;;24.30;70.20;;;;;;10393903;28;19941;-63
2023/08/24 16:17:04;;;;;;;;;;;24.30;70.40;;;;;;10384255;28;19940;-62
2023/08/24 16:22:06;;;;;;;;;;;24.30;70.20;;;;;;10394200;28;19934;-63
2023/08/24 16:27:09;;;;;;;;;;;24.20;70.30;;;;;;10381839;28;20022;-63
2023/08/24 16:32:11;;;;;;;;;;;24.20;70.40;;;;;;10398417;28;19933;-62
2023/08/24 16:37:13;;;;;;;;;;;24.20;70.60;;;;;;10406378;28;19934;-63
2023/08/24 16:42:15;;;;;;;;;;;24.20;70.50;;;;;;10386013;28;20731;-62
2023/08/24 16:47:17;;;;;;;;;;;24.20;70.50;;;;;;10394983;28;19940;-63
2023/08/24 16:52:20;;;;;;;;;;;24.20;70.40;;;;;;10397232;28;19933;-63
2023/08/24 16:57:22;;;;;;;;;;;24.20;70.50;;;;;;10376607;28;20052;-63
2023/08/24 17:02:23;;;;;;;;;;;24.20;70.50;;;;;;10387046;28;19934;-63
2023/08/24 17:07:25;;;;;;;;;;;24.20;70.70;;;;;;10392651;28;19933;-63
2023/08/24 17:12:27;;;;;;;;;;;24.20;70.60;;;;;;10392406;28;19933;-62
2023/08/24 17:17:29;;;;;;;;;;;24.20;70.60;;;;;;10389875;28;20348;-63
2023/08/24 17:22:31;;;;;;;;;;;24.10;70.50;;;;;;10395682;28;19934;-63
2023/08/24 17:27:33;;;;;;;;;;;24.20;70.50;;;;;;10407676;28;39677;-62
2023/08/24 17:32:35;;;;;;;;;;;24.20;70.50;;;;;;10386393;28;20381;-63
2023/08/24 17:37:37;;;;;;;;;;;24.20;70.30;;;;;;10389338;28;20018;-63
2023/08/24 17:42:43;;;;;;;;;;;24.20;70.40;;;;;;10393608;28;20021;-63
2023/08/24 17:47:45;;;;;;;;;;;24.20;70.40;;;;;;10387334;28;20308;-63
2023/08/24 17:52:47;;;;;;;;;;;24.10;70.50;;;;;;10386316;28;19941;-63
2023/08/24 17:57:49;;;;;;;;;;;24.20;70.70;;;;;;10383316;28;20023;-63
2023/08/24 18:02:52;;;;;;;;;;;24.10;71.00;;;;;;10398272;28;19940;-63
2023/08/24 18:07:54;;;;;;;;;;;24.10;70.80;;;;;;10398566;28;19985;-62
2023/08/24 18:12:58;;;;;;;;;;;24.10;70.90;;;;;;10392987;28;19933;-63
2023/08/24 18:18:00;;;;;;;;;;;24.10;71.00;;;;;;10405802;28;19933;-63
2023/08/24 18:23:02;;;;;;;;;;;24.00;70.80;;;;;;10400645;28;20303;-63
2023/08/24 18:28:05;;;;;;;;;;;24.00;71.10;;;;;;10392044;28;19933;-62
2023/08/24 18:33:06;;;;;;;;;;;24.00;71.10;;;;;;10400353;28;19940;-63
2023/08/24 18:38:08;;;;;;;;;;;24.00;71.30;;;;;;10400248;28;19976;-61
2023/08/24 18:43:11;;;;;;;;;;;23.90;71.30;;;;;;10400009;28;19933;-61
2023/08/24 18:48:13;;;;;;;;;;;23.90;71.30;;;;;;10380280;28;20400;-62
2023/08/24 18:53:15;;;;;;;;;;;23.90;71.30;;;;;;10398552;28;19941;-63
2023/08/24 18:58:17;;;;;;;;;;;23.90;71.30;;;;;;10387764;28;19933;-61
2023/08/24 19:03:21;;;;;;;;;;;23.90;71.30;;;;;;10396868;28;19988;-67
2023/08/24 19:08:23;;;;;;;;;;;23.90;71.20;;;;;;10387419;28;19964;-63
2023/08/24 19:13:25;;;;;;;;;;;23.80;71.20;;;;;;10390858;28;19933;-62
2023/08/24 19:18:27;;;;;;;;;;;23.80;71.20;;;;;;10381547;28;19941;-62
2023/08/24 19:23:29;;;;;;;;;;;23.80;71.30;;;;;;10230838;28;93415;-61
2023/08/24 19:28:31;;;;;;;;;;;23.80;71.30;;;;;;10225475;28;94453;-60
2023/08/24 19:33:33;;;;;;;;;;;23.80;71.20;;;;;;10251721;28;94446;-62
2023/08/24 19:38:35;;;;;;;;;;;23.80;71.20;;;;;;10237324;28;93550;-63
2023/08/24 19:43:37;;;;;;;;;;;23.80;71.40;;;;;;10236922;28;93819;-61
2023/08/24 19:48:43;;;;;;;;;;;23.80;71.20;;;;;;10236390;28;93579;-61
2023/08/24 19:53:45;;;;;;;;;;;23.80;71.30;;;;;;10225745;28;96849;-61
2023/08/24 19:58:47;;;;;;;;;;;23.80;71.30;;;;;;10237154;28;94451;-61
2023/08/24 20:03:50;;;;;;;;;;;23.80;71.30;;;;;;10239910;28;93179;-64
2023/08/24 20:08:52;;;;;;;;;;;23.80;71.20;;;;;;10235239;28;94660;-66
2023/08/24 20:13:54;;;;;;;;;;;23.80;71.40;;;;;;10236943;28;92908;-65
2023/08/24 20:18:56;;;;;;;;;;;23.80;71.20;;;;;;10236074;28;93754;-66
2023/08/24 20:23:59;;;;;;;;;;;23.80;71.30;;;;;;10231693;28;93441;-67
2023/08/24 20:29:01;;;;;;;;;;;23.80;71.20;;;;;;10235730;28;93779;-65
2023/08/24 20:34:03;;;;;;;;;;;23.80;71.50;;;;;;10235840;28;93413;-61
2023/08/24 20:39:09;;;;;;;;;;;23.80;71.50;;;;;;10240928;28;95063;-62
2023/08/24 20:44:12;;;;;;;;;;;23.80;71.50;;;;;;10234385;28;96584;-62
2023/08/24 20:49:14;;;;;;;;;;;23.80;71.50;;;;;;10236033;28;93435;-62
2023/08/24 20:54:16;;;;;;;;;;;23.80;71.60;;;;;;10228531;28;94137;-62
2023/08/24 20:59:17;;;;;;;;;;;23.80;71.60;;;;;;10246658;28;94441;-63
2023/08/24 21:04:20;;;;;;;;;;;23.80;71.60;;;;;;10225331;28;93902;-61
2023/08/24 21:09:22;;;;;;;;;;;23.80;72.00;;;;;;10224940;28;94563;-62
2023/08/24 21:14:23;;;;;;;;;;;23.80;71.60;;;;;;10234471;28;94785;-62
2023/08/24 21:19:25;;;;;;;;;;;23.80;71.30;;;;;;10232957;28;93393;-62
2023/08/24 21:24:27;;;;;;;;;;;23.90;71.30;;;;;;10230281;28;93432;-62
2023/08/24 21:29:30;;;;;;;;;;;23.90;71.30;;;;;;10227472;28;93511;-62
2023/08/24 21:34:32;;;;;;;;;;;23.90;71.30;;;;;;10225886;28;96402;-62
2023/08/24 21:39:34;;;;;;;;;;;23.90;71.40;;;;;;10232002;28;94806;-62
2023/08/24 21:44:36;;;;;;;;;;;23.90;71.50;;;;;;10231304;28;94588;-62
2023/08/24 21:49:37;;;;;;;;;;;23.80;71.40;;;;;;10235050;28;94621;-62
2023/08/24 21:54:42;;;;;;;;;;;23.80;71.30;;;;;;10230577;28;93356;-62
2023/08/24 21:59:44;;;;;;;;;;;23.80;71.20;;;;;;10225784;28;93386;-62
2023/08/24 22:04:46;;;;;;;;;;;23.80;71.20;;;;;;10234024;28;94719;-62
2023/08/24 22:09:49;;;;;;;;;;;23.80;71.20;;;;;;10223822;28;92715;-62
2023/08/24 22:14:51;;;;;;;;;;;23.80;71.20;;;;;;10243065;28;94359;-62
2023/08/24 22:19:52;;;;;;;;;;;23.80;71.20;;;;;;10236752;28;94846;-61
2023/08/24 22:24:54;;;;;;;;;;;23.80;71.20;;;;;;10233870;28;96208;-62
2023/08/24 22:29:56;;;;;;;;;;;23.80;71.20;;;;;;10235888;28;94404;-62
2023/08/24 22:34:58;;;;;;;;;;;23.80;71.20;;;;;;10233957;28;93364;-61
2023/08/24 22:40:05;;;;;;;;;;;23.80;71.10;;;;;;10227235;28;93842;-62
2023/08/24 22:45:07;;;;;;;;;;;23.80;71.10;;;;;;10227113;28;94397;-62
2023/08/24 22:50:11;;;;;;;;;;;23.80;71.10;;;;;;10234317;28;94086;-62
2023/08/24 22:55:12;;;;;;;;;;;23.80;70.90;;;;;;10229208;28;93451;-62
2023/08/24 23:00:14;;;;;;;;;;;23.80;70.90;;;;;;10241242;28;92761;-62
2023/08/24 23:05:17;;;;;;;;;;;23.80;70.90;;;;;;10239914;28;94621;-62
2023/08/24 23:10:19;;;;;;;;;;;23.80;70.90;;;;;;10235790;28;94510;-62
2023/08/24 23:15:21;;;;;;;;;;;23.80;70.80;;;;;;10236799;28;96806;-62
2023/08/24 23:20:23;;;;;;;;;;;23.80;70.90;;;;;;10234944;28;94675;-61
2023/08/24 23:25:25;;;;;;;;;;;23.80;70.80;;;;;;10219419;28;93866;-62
2023/08/24 23:30:26;;;;;;;;;;;23.80;70.80;;;;;;10224007;28;94401;-62
2023/08/24 23:35:29;;;;;;;;;;;23.80;70.80;;;;;;10217603;28;93481;-63
2023/08/24 23:40:33;;;;;;;;;;;23.80;70.80;;;;;;10228321;28;93446;-62
2023/08/24 23:45:35;;;;;;;;;;;23.80;70.80;;;;;;10227916;28;94400;-62
2023/08/24 23:50:37;;;;;;;;;;;23.80;70.70;;;;;;10225371;28;94170;-63
2023/08/24 23:55:41;;;;;;;;;;;23.80;70.60;;;;;;10220916;28;93765;-62
